Terminal Aerodrome Forecast
Issued by NWS Northern Indiana

Home | Current Version | Previous Version | Graphics & Text | Print | Product List | Glossary On
Versions: 1 2 3 4 5 6 7 8 9 10 11 12 13 14 15
000
FTUS43 KIWX 300500
TAFFWA
TAF
KFWA 300520Z 3006/0106 33007KT 6SM BR SCT006
      TEMPO 3006/3009 4SM BR BKN006
     FM300900 36010KT 5SM BR VCSH BKN008
     FM301600 35010KT P6SM OVC010
     FM301900 36008KT P6SM BKN020
     FM010000 04003KT P6SM SCT020=

USA.gov is the U.S. government's official web portal to all federal, state and local government web resources and services.